Terminal Aerodrome Forecast
Issued by NWS

Home | Current Version | Previous Version | Text Only | Print | Product List | Glossary On
Versions: 1 2 3 4 5 6 7 8 9 10 11 12 13 14 15 16 17
000
FTUS41 KBGM 111404 AAA
TAFELM
TAF AMD
KELM 111404Z 1114/1212 26007KT P6SM BKN035
      TEMPO 1114/1116 2SM -SN BKN028
     FM112000 VRB04KT P6SM BKN045
     FM120300 16005KT 3SM -SN OVC025
     FM120700 17007KT 2SM -SN OVC018=

USA.gov is the U.S. government's official web portal to all federal, state and local government web resources and services.